createdAt,value
2022-10-15T00:05:23.406Z,4166.9
2022-10-15T00:11:02.097Z,4167.1
2022-10-15T00:16:39.444Z,4167.6
2022-10-15T00:22:35.266Z,4167.7
2022-10-15T00:28:38.344Z,4163.7
2022-10-15T00:34:21.400Z,4165.6
2022-10-15T00:41:03.919Z,4168.1
2022-10-15T00:46:41.803Z,4165.7
2022-10-15T00:52:26.647Z,4168.4
2022-10-15T00:58:02.986Z,4163.7
2022-10-15T01:03:38.149Z,4162.5
2022-10-15T01:09:14.090Z,4162.2
2022-10-15T01:14:54.232Z,4165.2
2022-10-15T01:20:29.994Z,4158.9
2022-10-15T01:26:04.942Z,4162
2022-10-15T01:31:41.204Z,4163.7
2022-10-15T01:37:16.080Z,4161.5
2022-10-15T01:42:50.915Z,4161.9
2022-10-15T01:48:49.639Z,4161.2
2022-10-15T01:54:24.795Z,4162
2022-10-15T02:01:36.091Z,4159.9
2022-10-15T02:07:33.977Z,4163.4
2022-10-15T02:13:10.938Z,4162.5
2022-10-15T02:18:47.956Z,4158.2
2022-10-15T02:24:22.780Z,4157.4
2022-10-15T02:30:01.205Z,4157
2022-10-15T02:35:44.041Z,4157.4
2022-10-15T02:41:19.166Z,4156.2
2022-10-15T02:47:02.547Z,4157.5
2022-10-15T02:52:37.422Z,4156.8
2022-10-15T02:58:16.567Z,4157.9
2022-10-15T03:04:12.986Z,4154.3
2022-10-15T03:09:53.425Z,4157
2022-10-15T03:15:31.468Z,4152.8
2022-10-15T03:21:06.740Z,4156.3
2022-10-15T03:27:02.674Z,4155.2
2022-10-15T03:32:38.685Z,4153.7
2022-10-15T03:38:31.260Z,4152.8
2022-10-15T03:44:18.703Z,4154.7
2022-10-15T03:49:55.111Z,4151.3
2022-10-15T03:55:56.769Z,4153.3
2022-10-15T04:01:33.775Z,4153.3
2022-10-15T04:07:09.006Z,4150.3
2022-10-15T04:12:48.965Z,4151.3
2022-10-15T04:18:23.816Z,4150.3
2022-10-15T04:23:59.014Z,4150.3
2022-10-15T04:29:33.822Z,4149
2022-10-15T04:35:08.674Z,4149.3
2022-10-15T04:40:46.644Z,4150
2022-10-15T04:46:38.170Z,4150.5
2022-10-15T04:52:13.244Z,4149.6
2022-10-15T04:57:48.141Z,4149.6
2022-10-15T05:03:23.650Z,4148.1
2022-10-15T05:09:03.991Z,4149.8
2022-10-15T05:14:43.858Z,4147.8
2022-10-15T05:20:31.199Z,4148.5
2022-10-15T05:26:06.683Z,4147
2022-10-15T05:31:42.807Z,4149
2022-10-15T05:37:25.074Z,4147
2022-10-15T05:43:02.244Z,4149.8
2022-10-15T05:48:38.296Z,4148.1
2022-10-15T05:54:18.952Z,4146
2022-10-15T05:59:54.190Z,4147.8
2022-10-15T06:05:29.141Z,4147.1
2022-10-15T06:11:10.569Z,4145.5
2022-10-15T06:16:45.483Z,4145.8
2022-10-15T06:22:20.807Z,4146.5
2022-10-15T06:27:55.834Z,4146.3
2022-10-15T06:33:31.037Z,4142.3
2022-10-15T06:39:05.900Z,4144.6
2022-10-15T06:44:40.789Z,4148.5
2022-10-15T06:50:15.609Z,4148.8
2022-10-15T06:55:50.760Z,4153.7
2022-10-15T07:01:26.808Z,4153.7
2022-10-15T07:07:01.617Z,4159.4
2022-10-15T07:12:36.836Z,4157.5
2022-10-15T07:18:11.654Z,4158.5
2022-10-15T07:23:46.579Z,4163.9
2022-10-15T07:29:22.535Z,4170.9
2022-10-15T07:34:58.671Z,4175.3
2022-10-15T07:40:34.274Z,4205.1
2022-10-15T07:46:10.187Z,4209.1
2022-10-15T07:51:46.363Z,4204.4
2022-10-15T07:57:21.422Z,4209.9
2022-10-15T08:02:56.813Z,4216.3
2022-10-15T08:08:32.055Z,4209.8
2022-10-15T08:14:07.196Z,4211.8
2022-10-15T08:19:42.091Z,4202.6
2022-10-15T08:25:16.959Z,4193.5
2022-10-15T08:30:53.287Z,4200.2
2022-10-15T08:36:28.278Z,4212
2022-10-15T08:42:03.437Z,4199.1
2022-10-15T08:47:39.429Z,4217.6
2022-10-15T08:53:15.416Z,4207.4
2022-10-15T08:58:50.225Z,4216.6
2022-10-15T09:10:01.086Z,4214.5
2022-10-15T09:15:36.141Z,4210.4
2022-10-15T09:21:11.517Z,4197
2022-10-15T09:26:46.792Z,4216
2022-10-15T09:32:25.271Z,4218.7
2022-10-15T09:38:07.187Z,4220.2
2022-10-15T09:43:42.504Z,4222.3
2022-10-15T09:49:18.462Z,4207.1
2022-10-15T09:54:54.669Z,4203.6
2022-10-15T10:00:29.759Z,4215.5
2022-10-15T10:06:04.844Z,4225.9
2022-10-15T10:11:41.067Z,4215.6
2022-10-15T10:17:36.929Z,4216.5
2022-10-15T10:23:11.934Z,4210.1
2022-10-15T10:28:47.698Z,4208.1
2022-10-15T10:34:23.045Z,4209.3
2022-10-15T10:39:59.102Z,4214.6
2022-10-15T10:45:34.065Z,4210.4
2022-10-15T10:51:20.126Z,4205.8
2022-10-15T10:56:57.645Z,4227.2
2022-10-15T11:02:32.727Z,4213.5
2022-10-15T11:08:07.676Z,4215.1
2022-10-15T11:14:03.539Z,4219.5
2022-10-15T11:21:04.435Z,4219.2
2022-10-15T11:27:12.688Z,4215.1
2022-10-15T11:33:32.218Z,4221.3
2022-10-15T11:39:07.269Z,4212
2022-10-15T11:44:42.488Z,4222.5
2022-10-15T11:50:17.403Z,4217.1
2022-10-15T11:55:52.149Z,4218.2
2022-10-15T12:01:27.307Z,4224.9
2022-10-15T12:07:03.280Z,4227.5
2022-10-15T12:12:38.287Z,4214.6
2022-10-15T12:18:13.449Z,4226.9
2022-10-15T12:23:59.506Z,4230.4
2022-10-15T12:29:34.327Z,4210.3
2022-10-15T12:41:02.509Z,4225.2
2022-10-15T12:46:42.412Z,4233.7
2022-10-15T12:52:17.703Z,4224.2
2022-10-15T12:57:56.304Z,4221.7
2022-10-15T13:03:32.343Z,4228.9
2022-10-15T13:09:09.775Z,4218
2022-10-15T13:14:44.600Z,4222.3
2022-10-15T13:20:22.492Z,4223.3
2022-10-15T13:26:18.237Z,4219
2022-10-15T13:31:53.619Z,4217.3
2022-10-15T13:37:28.479Z,4231.1
2022-10-15T13:43:12.674Z,4230.2
2022-10-15T13:49:09.692Z,4231
2022-10-15T13:54:53.621Z,4218.5
2022-10-15T14:00:30.373Z,4219.2
2022-10-15T14:06:06.795Z,4224.7
2022-10-15T14:11:49.984Z,4224.9
2022-10-15T14:17:29.232Z,4229
2022-10-15T14:23:04.287Z,4218.8
2022-10-15T14:28:43.306Z,4230.2
2022-10-15T14:34:19.099Z,4216.6
2022-10-15T14:39:54.211Z,4219.2
2022-10-15T14:45:34.909Z,4220
2022-10-15T14:51:09.923Z,4216.3
2022-10-15T14:57:05.601Z,4228
2022-10-15T15:02:51.497Z,4227
2022-10-15T15:08:39.696Z,4213.1
2022-10-15T15:14:14.771Z,4219.2
2022-10-15T15:19:51.555Z,4209.8
2022-10-15T15:25:31.952Z,4207.9
2022-10-15T15:31:18.596Z,4205.1
2022-10-15T15:36:56.431Z,4205.6
2022-10-15T15:43:00.757Z,4202.6
2022-10-15T15:48:34.063Z,4204.8
2022-10-15T15:54:19.273Z,4203.7
2022-10-15T15:59:56.966Z,4204.2
2022-10-15T16:05:43.525Z,4202.1
2022-10-15T16:11:18.917Z,4201.9
2022-10-15T16:16:56.955Z,4201.9
2022-10-15T16:22:38.676Z,4202.4
2022-10-15T16:28:16.639Z,4200.6
2022-10-15T16:34:04.696Z,4199.6
2022-10-15T16:39:46.942Z,4198.9
2022-10-15T16:45:21.818Z,4198.9
2022-10-15T16:50:56.537Z,4201.1
2022-10-15T16:56:32.070Z,4196.4
2022-10-15T17:02:08.314Z,4197.7
2022-10-15T17:07:43.914Z,4201.6
2022-10-15T17:13:19.190Z,4199.6
2022-10-15T17:18:53.894Z,4197.9
2022-10-15T17:24:28.887Z,4198.9
2022-10-15T17:30:03.626Z,4196.9
2022-10-15T17:35:56.361Z,4192.4
2022-10-15T17:41:35.496Z,4193.5
2022-10-15T17:47:15.551Z,4195.9
2022-10-15T17:54:20.232Z,4193.5
2022-10-15T18:00:04.986Z,4192.7
2022-10-15T18:06:13.644Z,4194.7
2022-10-15T18:11:57.581Z,4192.7
2022-10-15T18:17:38.324Z,4193.2
2022-10-15T18:23:13.324Z,4193
2022-10-15T18:28:49.589Z,4193.5
2022-10-15T18:34:24.618Z,4192.9
2022-10-15T18:39:59.542Z,4193
2022-10-15T18:45:58.403Z,4192
2022-10-15T18:51:46.477Z,4193.5
2022-10-15T18:57:30.387Z,4191.2
2022-10-15T19:03:09.625Z,4191.2
2022-10-15T19:09:11.047Z,4191.5
2022-10-15T19:14:54.387Z,4190.7
2022-10-15T19:20:33.188Z,4192.4
2022-10-15T19:26:14.311Z,4185.7
2022-10-15T19:31:49.352Z,4189.2
2022-10-15T19:37:27.288Z,4186.5
2022-10-15T19:43:24.324Z,4186.5
2022-10-15T19:48:56.843Z,4186.5
2022-10-15T19:54:32.828Z,4186.5
2022-10-15T20:00:10.943Z,4185.7
2022-10-15T20:05:56.397Z,4187.3
2022-10-15T20:11:32.381Z,4185.5
2022-10-15T20:17:07.517Z,4185.5
2022-10-15T20:23:14.961Z,4184.1
2022-10-15T20:29:06.270Z,4181.8
2022-10-15T20:35:06.530Z,4184
2022-10-15T20:41:39.771Z,4185.2
2022-10-15T20:47:15.798Z,4183.3
2022-10-15T20:52:50.777Z,4181
2022-10-15T20:58:36.413Z,4183
2022-10-15T21:04:33.795Z,4181.3
2022-10-15T21:10:13.990Z,4179.3
2022-10-15T21:15:48.923Z,4178.3
2022-10-15T21:21:23.598Z,4180.1
2022-10-15T21:27:08.021Z,4180.8
2022-10-15T21:32:57.349Z,4179.3
2022-10-15T21:38:37.183Z,4177.3
2022-10-15T21:44:23.507Z,4176.4
2022-10-15T21:50:11.270Z,4175.1
2022-10-15T21:55:54.657Z,4177.8
2022-10-15T22:01:32.349Z,4177.3
2022-10-15T22:07:08.331Z,4177.6
2022-10-15T22:12:46.078Z,4179
2022-10-15T22:18:21.159Z,4180.5
2022-10-15T22:24:07.406Z,4179
2022-10-15T22:29:43.199Z,4176.6
2022-10-15T22:35:20.761Z,4175.4
2022-10-15T22:41:02.545Z,4177.5
2022-10-15T22:46:37.511Z,4175.4
2022-10-15T22:52:18.329Z,4174.4
2022-10-15T22:57:53.038Z,4174.4
2022-10-15T23:04:02.733Z,4175.1
2022-10-15T23:09:52.815Z,4175.1
2022-10-15T23:15:37.347Z,4173.4
2022-10-15T23:21:12.377Z,4174.4
2022-10-15T23:26:47.819Z,4175.8
2022-10-15T23:32:30.683Z,4173.6
2022-10-15T23:38:13.477Z,4173.8
2022-10-15T23:43:52.860Z,4174.3
2022-10-15T23:49:30.550Z,4172.1
2022-10-15T23:55:09.523Z,4171.4
